Time;durP1;ratioP1;P1;durP2;ratioP2;P2;SDS_P1;SDS_P2;PMS_P1;PMS_P2;Temp;Humidity;BMP_temperature;BMP_pressure;BME280_temperature;BME280_humidity;BME280_pressure;Samples;Min_cycle;Max_cycle;Signal;HPM_P1;HPM_P2
2022/05/29 00:01:21;;;;;;;3.40;1.95;;;13.60;46.60;;;13.98;41.55;97364.78;5030226;28;20057;-46
2022/05/29 00:03:50;;;;;;;2.20;1.50;;;13.70;46.50;;;13.97;41.44;97373.00;5030433;28;20053;-43
2022/05/29 00:06:18;;;;;;;4.20;2.03;;;13.60;46.40;;;13.94;41.48;97368.88;5031186;28;20045;-45
2022/05/29 00:08:46;;;;;;;4.45;1.98;;;13.60;46.50;;;13.95;41.42;97369.69;5027808;28;20071;-44
2022/05/29 00:11:15;;;;;;;2.63;1.73;;;13.60;46.40;;;13.90;41.47;97366.75;5027299;28;20045;-43
2022/05/29 00:13:44;;;;;;;5.70;2.40;;;13.60;46.60;;;13.89;41.46;97365.09;5028044;28;20053;-42
2022/05/29 00:16:12;;;;;;;3.78;1.92;;;13.60;46.60;;;13.86;41.57;97369.00;5029466;28;20241;-45
2022/05/29 00:18:42;;;;;;;2.33;1.70;;;13.50;46.60;;;13.89;41.82;97365.91;5029006;28;20045;-43
2022/05/29 00:21:10;;;;;;;3.58;1.85;;;13.60;46.80;;;13.89;41.75;97363.25;5029849;28;20065;-43
2022/05/29 00:23:42;;;;;;;2.60;1.83;;;13.60;47.00;;;13.91;41.72;97361.19;5028234;28;20049;-43
2022/05/29 00:26:11;;;;;;;4.75;2.00;;;13.60;47.00;;;13.91;42.23;97363.88;5026255;28;20049;-43
2022/05/29 00:28:39;;;;;;;2.72;1.65;;;13.60;48.20;;;13.93;42.36;97359.16;5028686;28;20251;-43
2022/05/29 00:31:07;;;;;;;2.40;1.98;;;13.70;47.70;;;13.92;42.54;97360.19;5029047;28;20079;-44
2022/05/29 00:33:35;;;;;;;3.75;1.90;;;13.60;48.00;;;13.92;42.25;97352.16;5028805;28;20063;-47
2022/05/29 00:36:03;;;;;;;3.83;2.13;;;13.60;47.60;;;13.93;41.68;97355.66;5029037;28;20053;-42
2022/05/29 00:38:41;;;;;;;3.35;1.85;;;13.50;46.70;;;13.90;41.75;97358.72;5027287;28;20052;-44
2022/05/29 00:41:31;;;;;;;4.20;1.80;;;13.60;46.80;;;13.88;41.64;97350.03;5027884;28;20037;-43
2022/05/29 00:44:17;;;;;;;3.90;1.90;;;13.60;46.50;;;13.89;41.88;97346.38;5027346;28;20041;-44
2022/05/29 00:46:56;;;;;;;3.22;1.50;;;13.60;46.40;;;13.89;41.15;97346.38;5028437;28;20057;-42
2022/05/29 00:49:27;;;;;;;1.98;1.55;;;13.50;46.30;;;13.88;41.45;97350.03;5027419;28;20045;-45
2022/05/29 00:52:13;;;;;;;3.40;1.60;;;13.50;46.50;;;13.91;41.66;97347.00;5028523;28;20045;-43
2022/05/29 00:54:49;;;;;;;5.82;1.60;;;13.60;46.40;;;13.94;41.45;97347.47;5028419;28;20512;-42
2022/05/29 00:57:25;;;;;;;5.57;1.70;;;13.70;46.50;;;13.95;41.69;97340.25;5028148;28;20116;-43
2022/05/29 00:59:56;;;;;;;4.43;1.90;;;13.60;46.50;;;13.97;41.70;97343.56;5027516;28;20050;-46
2022/05/29 01:02:24;;;;;;;3.67;1.92;;;13.70;46.40;;;13.97;41.29;97340.88;5026493;28;20058;-44
2022/05/29 01:04:52;;;;;;;3.95;1.85;;;13.70;46.40;;;13.97;41.71;97332.84;5028361;28;20067;-42
2022/05/29 01:07:22;;;;;;;4.97;2.83;;;13.60;46.50;;;13.99;41.61;97336.16;5026107;28;20055;-45
2022/05/29 01:09:52;;;;;;;8.13;3.35;;;13.70;46.50;;;13.97;41.60;97331.00;5026790;28;20062;-46
2022/05/29 01:12:40;;;;;;;4.57;2.95;;;13.70;46.50;;;13.99;41.73;97330.81;5027857;28;20049;-46
2022/05/29 01:15:37;;;;;;;8.23;3.60;;;13.80;47.00;;;13.96;41.94;97325.88;5028287;28;20053;-42
2022/05/29 01:18:19;;;;;;;7.55;3.10;;;13.60;46.70;;;13.98;42.17;97324.66;5027536;28;20340;-44
2022/05/29 01:21:24;;;;;;;3.22;1.92;;;13.60;47.40;;;13.98;42.07;97323.81;5027850;28;20068;-45
2022/05/29 01:24:16;;;;;;;2.55;1.77;;;13.70;47.60;;;13.95;42.06;97319.66;5027970;28;20055;-43
2022/05/29 01:27:30;;;;;;;3.63;2.67;;;13.70;47.60;;;13.95;41.99;97326.88;5028708;28;20080;-45
2022/05/29 01:30:13;;;;;;;3.15;1.80;;;13.60;47.30;;;13.86;42.22;97317.31;5028416;28;20057;-42
2022/05/29 01:33:00;;;;;;;3.33;2.00;;;13.40;48.10;;;13.83;42.52;97317.69;5026029;28;20080;-43
2022/05/29 01:35:35;;;;;;;3.13;2.00;;;13.50;48.20;;;13.78;42.59;97318.25;5028119;28;20049;-43
2022/05/29 01:38:29;;;;;;;3.15;2.15;;;13.40;48.30;;;13.72;42.76;97319.00;5026958;28;20064;-43
2022/05/29 01:41:07;;;;;;;4.05;1.92;;;13.30;49.00;;;13.64;43.55;97309.25;5025743;28;20060;-43
2022/05/29 01:44:41;;;;;;;2.25;2.05;;;13.10;50.30;;;13.44;44.46;97303.69;5026514;28;20072;-43
2022/05/29 01:47:27;;;;;;;3.88;2.72;;;12.90;52.20;;;13.42;43.89;97300.38;5024234;28;20057;-42
2022/05/29 01:50:05;;;;;;;3.72;2.00;;;12.90;51.80;;;13.42;44.45;97303.03;5027728;28;20057;-42
2022/05/29 01:52:47;;;;;;;4.97;2.30;;;12.90;52.10;;;13.32;45.42;97302.53;5027107;28;20250;-42
2022/05/29 01:55:34;;;;;;;3.75;2.15;;;12.80;53.40;;;13.31;45.08;97298.16;5025276;28;20049;-43
2022/05/29 01:58:19;;;;;;;5.40;2.00;;;12.80;52.90;;;13.31;45.87;97300.84;5026024;28;20100;-43
2022/05/29 02:00:50;;;;;;;2.50;1.92;;;12.80;53.50;;;13.29;45.02;97294.81;5009266;28;20064;-42
2022/05/29 02:03:30;;;;;;;3.35;2.08;;;12.70;52.80;;;13.24;45.47;97290.06;5025905;28;20236;-42
2022/05/29 02:06:06;;;;;;;2.60;1.73;;;12.70;53.90;;;13.23;45.93;97288.38;5027273;28;20050;-42
2022/05/29 02:08:59;;;;;;;2.60;1.65;;;12.70;53.80;;;13.21;46.15;97285.06;5026130;28;20045;-43
2022/05/29 02:11:30;;;;;;;2.35;2.00;;;12.70;54.30;;;13.19;45.95;97271.88;5024059;28;20049;-42
2022/05/29 02:14:15;;;;;;;3.53;1.75;;;12.70;53.60;;;13.10;46.33;97277.53;5027546;28;20255;-42
2022/05/29 02:16:55;;;;;;;3.58;1.98;;;12.60;55.00;;;13.07;46.09;97278.72;5025230;28;20061;-42
2022/05/29 02:19:46;;;;;;;4.40;2.65;;;12.60;54.60;;;13.11;46.19;97279.19;5025404;28;20072;-45
2022/05/29 02:22:29;;;;;;;2.25;1.73;;;12.70;54.70;;;13.07;46.52;97276.06;5026257;28;20045;-44
2022/05/29 02:25:11;;;;;;;4.47;2.20;;;12.70;55.00;;;12.94;46.90;97271.34;5026210;28;20059;-42
2022/05/29 02:28:05;;;;;;;5.40;2.10;;;12.40;55.20;;;12.92;46.99;97257.34;5024438;28;20087;-42
2022/05/29 02:31:00;;;;;;;3.55;2.15;;;12.40;55.90;;;12.96;46.71;97266.66;5025584;28;20239;-44
2022/05/29 02:33:42;;;;;;;2.72;2.38;;;12.50;55.10;;;12.93;46.96;97259.03;5025204;28;20120;-42
2022/05/29 02:36:32;;;;;;;4.45;2.33;;;12.50;55.90;;;12.95;46.67;97262.34;5025223;28;20064;-44
2022/05/29 02:39:38;;;;;;;5.80;2.03;;;12.50;55.30;;;12.89;47.25;97248.88;5027230;28;20296;-42
2022/05/29 02:42:30;;;;;;;4.15;2.03;;;12.50;55.30;;;12.88;47.06;97252.56;5025686;28;20059;-42
2022/05/29 02:45:56;;;;;;;3.47;2.17;;;12.50;56.00;;;12.90;46.95;97248.69;5026133;28;20534;-42
2022/05/29 02:49:08;;;;;;;4.13;2.00;;;12.50;55.30;;;12.91;47.00;97245.03;5025989;28;20214;-41
2022/05/29 02:51:51;;;;;;;3.73;2.10;;;12.50;54.60;;;12.89;46.89;97239.03;5025632;28;20057;-42
2022/05/29 02:54:26;;;;;;;3.47;1.92;;;12.50;54.70;;;12.88;47.00;97233.88;5026595;28;20050;-42
2022/05/29 02:56:57;;;;;;;6.57;2.40;;;12.40;55.40;;;12.89;47.01;97232.84;5025410;28;20053;-44
2022/05/29 02:59:38;;;;;;;4.30;2.40;;;12.40;54.90;;;12.88;47.25;97233.88;5026190;28;20348;-42
2022/05/29 03:02:46;;;;;;;4.63;2.10;;;12.50;56.20;;;12.75;47.83;97224.66;5026167;28;20056;-43
2022/05/29 03:05:37;;;;;;;3.85;2.67;;;12.20;56.40;;;12.68;48.51;97226.44;5025492;28;20068;-42
2022/05/29 03:08:24;;;;;;;6.20;3.10;;;12.30;56.60;;;12.74;47.08;97222.19;5027061;28;20080;-42
2022/05/29 03:11:18;;;;;;;4.90;2.25;;;12.30;55.20;;;12.66;47.24;97227.59;5024103;28;20255;-44
2022/05/29 03:14:06;;;;;;;4.05;2.72;;;12.20;55.50;;;12.69;46.93;97221.91;5025779;28;20272;-45
2022/05/29 03:17:11;;;;;;;4.57;2.03;;;12.30;55.10;;;12.56;47.42;97230.56;5025160;28;20053;-45
2022/05/29 03:20:08;;;;;;;5.03;2.75;;;12.10;55.10;;;12.57;47.17;97225.03;5025658;28;20069;-44
2022/05/29 03:22:41;;;;;;;3.38;2.22;;;12.20;55.60;;;12.56;47.28;97231.41;5024859;28;20123;-42
2022/05/29 03:25:38;;;;;;;3.05;2.00;;;12.10;54.70;;;12.52;47.63;97234.59;5025760;28;20140;-42
2022/05/29 03:28:19;;;;;;;5.18;2.00;;;12.10;56.20;;;12.54;47.61;97232.59;5026502;28;20049;-43
2022/05/29 03:30:49;;;;;;;6.55;2.20;;;12.20;55.70;;;12.56;48.29;97238.56;5024450;28;20291;-42
2022/05/29 03:33:18;;;;;;;4.45;2.50;;;12.20;56.00;;;12.58;48.18;97234.72;5026389;28;20057;-42
2022/05/29 03:36:06;;;;;;;6.68;2.55;;;12.20;56.50;;;12.58;47.70;97237.38;5024131;28;20049;-42
2022/05/29 03:38:34;;;;;;;2.97;2.00;;;12.20;56.30;;;12.60;47.95;97226.50;5025013;28;20054;-44
2022/05/29 03:41:13;;;;;;;4.63;1.98;;;12.20;56.40;;;12.55;48.36;97232.41;5025820;28;20055;-44
2022/05/29 03:43:43;;;;;;;3.72;2.38;;;12.10;56.90;;;12.54;48.08;97229.91;5023740;28;20049;-43
2022/05/29 03:46:16;;;;;;;4.70;2.80;;;12.10;57.00;;;12.50;48.49;97229.44;5025987;28;20046;-43
2022/05/29 03:48:44;;;;;;;5.18;2.30;;;12.10;56.90;;;12.49;48.49;97224.31;5026226;28;20219;-45
2022/05/29 03:51:12;;;;;;;3.63;2.15;;;12.10;56.80;;;12.49;48.63;97221.66;5025032;28;20064;-42
2022/05/29 03:53:40;;;;;;;4.55;2.75;;;12.00;56.60;;;12.49;48.80;97214.44;5025333;28;20059;-44
2022/05/29 03:56:08;;;;;;;5.68;2.45;;;12.10;57.30;;;12.51;49.03;97215.09;5027339;28;20061;-45
2022/05/29 03:58:36;;;;;;;6.50;2.78;;;12.20;57.40;;;12.54;49.51;97208.56;5024877;28;20050;-44
2022/05/29 04:01:04;;;;;;;3.25;2.13;;;12.20;58.10;;;12.56;49.71;97212.72;5023359;28;20064;-42
2022/05/29 04:03:35;;;;;;;6.18;2.50;;;12.20;58.70;;;12.58;49.37;97213.34;5026209;28;20054;-42
2022/05/29 04:06:03;;;;;;;4.63;2.45;;;12.20;58.70;;;12.57;49.28;97221.53;5024741;28;20320;-45
2022/05/29 04:14:06;;;;;;;2.55;1.90;;;11.90;58.40;;;12.34;49.84;97238.47;5025148;28;20061;-44
2022/05/29 04:16:34;;;;;;;3.20;1.90;;;11.80;59.90;;;12.21;50.31;97231.09;5024716;28;20258;-43
2022/05/29 04:19:02;;;;;;;2.92;1.92;;;11.60;59.90;;;12.13;50.18;97233.81;5024949;28;20057;-45
2022/05/29 04:21:30;;;;;;;3.92;2.17;;;11.60;59.90;;;12.08;50.01;97230.88;5024774;28;20061;-45
2022/05/29 04:23:58;;;;;;;4.35;2.08;;;11.50;59.60;;;12.05;50.20;97233.06;5025991;28;20072;-44
2022/05/29 04:26:26;;;;;;;5.83;2.33;;;11.50;60.20;;;12.04;50.98;97234.94;5026285;28;20049;-44
2022/05/29 04:28:54;;;;;;;3.70;2.08;;;11.50;60.80;;;12.08;50.65;97235.38;5025798;28;20048;-46
2022/05/29 04:31:22;;;;;;;2.75;2.15;;;11.60;60.10;;;12.09;49.94;97232.53;5029080;28;20060;-44
2022/05/29 04:33:50;;;;;;;3.42;1.80;;;11.60;58.90;;;12.07;50.50;97229.22;5027697;28;20061;-44
2022/05/29 04:36:19;;;;;;;7.43;2.53;;;11.60;60.00;;;12.10;50.29;97233.38;5026220;28;20359;-42
2022/05/29 04:38:46;;;;;;;4.30;2.50;;;11.60;59.50;;;12.14;50.09;97232.00;5025523;28;20053;-45
2022/05/29 04:41:14;;;;;;;3.80;2.15;;;11.70;58.90;;;12.11;49.99;97235.00;5027767;28;20057;-43
2022/05/29 04:43:43;;;;;;;4.85;2.30;;;11.70;58.90;;;12.09;49.89;97237.84;5028096;28;20049;-43
2022/05/29 04:46:10;;;;;;;4.93;2.30;;;11.70;59.50;;;12.05;50.41;97238.41;5027222;28;20057;-44
2022/05/29 04:48:38;;;;;;;5.00;2.00;;;11.60;60.90;;;12.01;49.96;97241.44;5026780;28;20057;-45
2022/05/29 04:51:06;;;;;;;5.20;2.17;;;11.50;59.60;;;11.89;51.14;97239.34;5027447;28;20080;-43
2022/05/29 04:53:34;;;;;;;6.57;2.60;;;11.40;61.40;;;11.85;52.10;97246.06;5027644;28;20053;-42
2022/05/29 04:56:02;;;;;;;5.72;2.20;;;11.20;62.90;;;11.83;51.81;97235.56;5028951;28;20041;-44
2022/05/29 04:58:30;;;;;;;3.35;2.03;;;11.30;63.50;;;11.78;52.24;97237.94;5027505;28;20059;-47
2022/05/29 05:01:01;;;;;;;4.13;2.00;;;11.30;63.00;;;11.75;51.62;97228.47;5026921;28;20058;-42
2022/05/29 05:03:30;;;;;;;3.67;2.22;;;11.20;61.70;;;11.79;52.00;97220.94;5026740;28;20053;-43
2022/05/29 05:05:58;;;;;;;5.38;2.13;;;11.30;62.40;;;11.74;51.83;97216.13;5027878;28;20051;-44
2022/05/29 05:08:27;;;;;;;3.83;2.72;;;11.30;61.30;;;11.75;51.20;97220.47;5026955;28;20271;-44
2022/05/29 05:10:55;;;;;;;2.93;1.93;;;11.30;60.90;;;11.79;51.21;97227.09;5027544;28;20060;-42
2022/05/29 05:13:24;;;;;;;4.10;2.00;;;11.40;60.90;;;11.78;50.75;97220.09;5028271;28;20523;-44
2022/05/29 05:16:00;;;;;;;3.83;2.00;;;11.40;59.60;;;11.82;50.85;97220.56;5029122;28;20057;-45
2022/05/29 05:18:29;;;;;;;4.60;2.30;;;11.50;60.10;;;11.78;51.12;97225.41;5028715;28;20053;-42
2022/05/29 05:20:56;;;;;;;3.40;1.90;;;11.40;61.00;;;11.80;50.76;97230.56;5027575;28;20051;-45
2022/05/29 05:23:27;;;;;;;5.72;2.17;;;11.40;59.50;;;11.80;51.56;97230.56;5028092;28;20365;-43
2022/05/29 05:25:55;;;;;;;2.73;2.17;;;11.40;60.10;;;11.65;51.95;97237.69;5009937;28;20053;-43
2022/05/29 05:28:24;;;;;;;7.63;2.22;;;11.20;61.80;;;11.72;51.84;97230.66;5027629;28;20056;-45
2022/05/29 05:30:51;;;;;;;4.18;1.85;;;11.30;61.20;;;11.75;51.44;97231.13;5027109;28;20046;-49
2022/05/29 05:33:19;;;;;;;4.68;2.17;;;11.40;61.00;;;11.83;51.65;97233.72;5024434;28;20067;-44
2022/05/29 05:35:47;;;;;;;3.00;1.85;;;11.50;60.90;;;11.95;50.94;97230.66;5027403;28;20250;-44
2022/05/29 05:38:15;;;;;;;5.10;2.60;;;11.70;59.90;;;11.94;51.23;97229.84;5027487;28;20522;-46
2022/05/29 05:40:43;;;;;;;3.57;1.70;;;11.70;60.00;;;11.97;51.43;97217.97;5026752;28;20246;-45
2022/05/29 05:43:11;;;;;;;4.93;2.17;;;11.70;60.00;;;12.06;50.82;97227.56;5027591;28;20052;-48
2022/05/29 05:45:42;;;;;;;5.28;2.00;;;11.80;59.40;;;12.10;51.09;97226.19;5027354;28;20060;-46
2022/05/29 05:48:10;;;;;;;3.80;1.63;;;11.90;59.90;;;12.13;51.25;97225.81;5027561;28;20057;-44
2022/05/29 05:50:38;;;;;;;4.15;1.88;;;11.80;59.40;;;12.10;50.72;97228.03;5026605;28;20045;-44
2022/05/29 05:53:06;;;;;;;3.35;1.80;;;11.80;59.20;;;12.11;50.94;97227.00;5027051;28;20053;-45
2022/05/29 05:55:36;;;;;;;7.47;2.40;;;11.80;59.70;;;12.10;51.16;97222.69;5026852;28;20057;-46
2022/05/29 05:58:04;;;;;;;2.95;1.83;;;11.80;59.50;;;12.06;50.97;97224.03;5027194;28;20055;-46
2022/05/29 06:00:32;;;;;;;6.45;2.70;;;11.80;60.00;;;12.00;50.84;97222.97;5027220;28;20049;-44
2022/05/29 06:03:00;;;;;;;4.20;2.40;;;11.60;59.00;;;12.01;50.99;97220.09;5026720;28;20053;-46
2022/05/29 06:05:28;;;;;;;5.80;2.20;;;11.60;59.70;;;12.04;50.66;97221.59;5027386;28;20209;-45
2022/05/29 06:07:56;;;;;;;3.50;2.10;;;11.70;59.30;;;12.04;51.06;97226.06;5027885;28;20042;-46
2022/05/29 06:10:24;;;;;;;4.50;2.40;;;11.70;59.80;;;12.00;51.50;97226.44;5026443;28;20051;-43
2022/05/29 06:12:52;;;;;;;4.10;2.25;;;11.70;60.00;;;11.95;50.95;97223.47;5028795;28;20160;-45
2022/05/29 06:15:19;;;;;;;4.15;2.53;;;11.60;59.80;;;12.05;50.68;97231.22;5025707;28;20068;-43
2022/05/29 06:17:47;;;;;;;4.22;1.92;;;11.70;59.80;;;12.13;50.68;97235.66;5027464;28;20064;-46
2022/05/29 06:20:15;;;;;;;6.25;2.47;;;11.80;59.50;;;12.13;51.00;97235.66;5026953;28;20161;-44
2022/05/29 06:22:43;;;;;;;5.10;2.42;;;11.80;59.70;;;12.16;51.09;97235.31;5024188;28;20053;-40
2022/05/29 06:25:11;;;;;;;2.58;1.83;;;11.90;59.30;;;12.18;51.56;97238.63;5027582;28;20052;-40
2022/05/29 06:27:43;;;;;;;5.38;2.00;;;12.00;59.20;;;12.31;51.28;97241.50;5026872;28;20517;-40
2022/05/29 06:30:15;;;;;;;6.15;2.22;;;12.10;58.80;;;12.41;50.90;97243.91;5026694;28;20061;-40
2022/05/29 06:32:44;;;;;;;4.03;2.03;;;12.20;59.60;;;12.50;50.93;97242.78;5027346;28;20049;-40
2022/05/29 06:35:14;;;;;;;4.30;1.85;;;12.40;58.50;;;12.61;50.83;97242.34;5025880;28;20068;-40
2022/05/29 06:37:42;;;;;;;5.05;2.28;;;12.60;58.10;;;12.80;50.72;97245.50;5026221;28;20053;-39
2022/05/29 06:40:12;;;;;;;5.13;1.85;;;12.90;58.00;;;12.98;50.26;97245.91;5026271;28;20255;-40
2022/05/29 06:42:41;;;;;;;2.97;1.92;;;13.20;56.40;;;13.04;48.80;97232.84;5026071;28;20251;-40
2022/05/29 06:45:11;;;;;;;3.85;1.80;;;13.20;53.70;;;13.19;48.85;97233.63;5026184;28;20052;-40
2022/05/29 06:47:40;;;;;;;3.90;2.38;;;13.40;54.70;;;13.28;48.91;97239.69;5026216;28;20303;-40
2022/05/29 06:50:09;;;;;;;3.35;1.90;;;13.40;54.80;;;13.28;48.97;97237.00;5026332;28;20053;-39
2022/05/29 06:52:38;;;;;;;4.47;2.00;;;13.40;55.00;;;13.36;49.14;97240.44;5027430;28;20079;-39
2022/05/29 06:55:08;;;;;;;3.65;1.95;;;13.50;55.30;;;13.43;49.47;97243.19;5026765;28;20352;-39
2022/05/29 06:57:36;;;;;;;3.30;2.13;;;13.50;55.60;;;13.35;49.41;97241.47;5026237;28;20263;-40
2022/05/29 07:08:33;;;;;;;4.15;2.20;;;13.20;57.40;;;13.26;49.65;97258.63;5025891;28;20052;-39
2022/05/29 07:11:24;;;;;;;4.07;2.28;;;13.10;58.00;;;13.16;50.64;97256.25;5024757;28;20049;-39
2022/05/29 07:13:54;;;;;;;4.03;2.13;;;13.00;58.10;;;13.24;50.25;97266.00;5022811;28;20050;-39
2022/05/29 07:16:22;;;;;;;3.92;1.88;;;13.00;58.20;;;13.15;50.42;97267.09;5023140;28;20255;-39
2022/05/29 07:18:50;;;;;;;4.95;1.85;;;13.00;58.10;;;12.91;50.34;97271.75;5024454;28;20053;-39
2022/05/29 07:21:22;;;;;;;2.63;1.63;;;12.70;58.70;;;12.85;50.64;97271.63;5024043;28;20045;-40
2022/05/29 07:23:50;;;;;;;6.63;2.10;;;12.40;58.80;;;12.76;50.41;97277.06;5024858;28;20045;-39
2022/05/29 07:26:18;;;;;;;5.72;2.40;;;12.40;59.00;;;12.68;50.67;97274.50;5026516;28;20050;-40
2022/05/29 07:28:46;;;;;;;4.00;2.70;;;12.30;59.70;;;12.63;50.73;97276.06;5026773;28;20041;-40
2022/05/29 07:31:14;;;;;;;7.32;3.72;;;12.30;59.70;;;12.56;52.09;97275.94;5025273;28;20071;-39
2022/05/29 07:33:42;;;;;;;4.00;2.13;;;12.20;61.70;;;12.50;51.79;97282.84;5025458;28;20053;-39
2022/05/29 07:36:12;;;;;;;5.22;2.40;;;12.10;60.80;;;12.47;52.20;97288.56;5026215;28;20057;-40
2022/05/29 07:38:40;;;;;;;3.38;1.98;;;12.10;62.80;;;12.27;53.36;97285.59;5026918;28;20061;-39
2022/05/29 07:43:55;;;;;;;4.78;2.20;;;11.80;64.00;;;11.74;55.58;97288.13;5025115;28;20374;-39
2022/05/29 07:46:24;;;;;;;6.78;2.25;;;11.40;67.20;;;11.76;55.44;97286.09;5025904;28;20049;-40
2022/05/29 07:48:52;;;;;;;4.97;2.00;;;11.30;67.70;;;11.72;55.64;97291.97;5026087;28;20057;-40
2022/05/29 07:51:20;;;;;;;6.65;2.60;;;11.30;68.10;;;11.80;55.16;97295.41;5026100;28;20051;-39
2022/05/29 07:53:48;;;;;;;4.00;2.30;;;11.40;69.00;;;11.84;55.38;97287.88;5025471;28;20053;-39
2022/05/29 07:56:16;;;;;;;6.55;2.67;;;11.40;68.20;;;11.94;55.53;97298.34;5025466;28;20057;-40
2022/05/29 07:58:44;;;;;;;5.50;2.60;;;11.50;69.20;;;11.94;55.05;97299.19;5028608;28;20120;-39
2022/05/29 08:01:12;;;;;;;6.38;2.65;;;11.60;67.70;;;12.02;55.17;97299.13;5036134;28;20272;-39
2022/05/29 08:03:41;;;;;;;3.70;2.10;;;11.70;68.20;;;11.99;55.76;97301.31;5032891;28;20142;-39
2022/05/29 08:06:09;;;;;;;4.05;2.22;;;11.60;69.50;;;11.97;56.17;97304.16;5039512;28;20355;-39
2022/05/29 08:08:38;;;;;;;5.68;3.22;;;11.60;69.50;;;11.98;56.57;97304.97;5035968;28;20045;-39
2022/05/29 08:11:07;;;;;;;5.97;2.38;;;11.60;71.60;;;12.04;56.66;97303.44;5040057;28;20052;-39
2022/05/29 08:13:38;;;;;;;4.55;2.58;;;11.60;71.10;;;12.13;56.27;97302.38;5036164;28;20371;-39
2022/05/29 08:16:06;;;;;;;5.65;2.50;;;11.70;71.30;;;12.03;56.97;97310.63;5039361;28;20049;-39
2022/05/29 08:18:33;;;;;;;3.90;2.67;;;11.60;70.80;;;12.11;56.63;97307.06;5036496;28;20374;-39
2022/05/29 08:21:02;;;;;;;9.10;3.05;;;11.70;71.10;;;12.25;56.68;97311.59;5031516;28;20049;-39
2022/05/29 08:23:29;;;;;;;4.90;2.30;;;11.90;71.60;;;12.32;56.33;97306.38;5028584;28;20057;-39
2022/05/29 08:31:14;;;;;;;6.30;2.70;;;11.90;70.90;;;12.29;57.18;97306.75;5028302;28;20056;-39
2022/05/29 08:33:46;;;;;;;6.07;2.78;;;11.90;72.10;;;12.24;57.30;97311.81;5027178;28;20465;-40
2022/05/29 08:36:24;;;;;;;5.45;3.20;;;11.80;73.50;;;12.23;57.00;97308.28;5029355;28;20061;-40
2022/05/29 08:38:56;;;;;;;4.57;3.10;;;11.80;72.50;;;12.21;57.78;97302.31;5026415;28;20063;-39
2022/05/29 08:41:46;;;;;;;4.25;2.95;;;11.70;72.70;;;12.29;57.13;97304.06;5028942;28;20055;-39
2022/05/29 08:44:23;;;;;;;8.15;2.85;;;11.90;72.20;;;12.31;56.72;97304.72;5027752;28;20054;-39
2022/05/29 08:47:00;;;;;;;6.53;4.03;;;11.90;71.10;;;12.37;57.10;97298.69;5028144;28;20205;-39
2022/05/29 08:49:46;;;;;;;4.07;2.83;;;12.00;71.60;;;12.42;56.55;97301.63;5028948;28;20061;-39
2022/05/29 08:52:25;;;;;;;;;;;12.10;71.10;;;12.37;57.81;97302.16;5028188;28;20064;-39
2022/05/29 08:55:13;;;;;;;5.65;2.70;;;12.00;73.20;;;12.37;57.12;97302.16;5027315;28;20119;-39
2022/05/29 08:58:08;;;;;;;9.20;3.10;;;11.90;72.80;;;12.33;56.70;97308.88;5028453;28;20063;-40
2022/05/29 09:01:18;;;;;;;4.93;2.67;;;11.90;72.70;;;12.36;56.89;97311.19;5027498;28;20091;-41
2022/05/29 09:03:55;;;;;;;3.97;2.42;;;11.90;71.80;;;12.32;56.88;97311.72;5028837;28;20056;-39
2022/05/29 09:06:47;;;;;;;4.70;2.67;;;11.80;71.70;;;12.27;56.82;97306.09;5028042;28;20054;-39
2022/05/29 09:09:43;;;;;;;6.55;2.78;;;11.80;72.60;;;12.25;57.28;97302.78;5027061;28;20052;-39
2022/05/29 09:12:28;;;;;;;5.97;2.50;;;11.70;74.00;;;12.26;57.92;97301.78;5027633;28;20049;-39
2022/05/29 09:15:06;;;;;;;8.63;2.70;;;11.80;74.50;;;12.23;58.70;97305.63;5027119;28;20383;-39
2022/05/29 09:17:51;;;;;;;6.10;2.80;;;11.70;76.40;;;12.20;59.20;97306.00;5027012;28;20738;-39
2022/05/29 09:20:37;;;;;;;9.75;4.25;;;11.80;77.30;;;12.17;59.27;97311.69;5026326;28;20057;-40
2022/05/29 09:23:12;;;;;;;6.80;3.65;;;11.70;77.90;;;12.23;58.97;97297.59;5026344;28;20061;-39
2022/05/29 09:25:43;;;;;;;7.13;3.13;;;11.80;77.90;;;12.27;59.09;97300.75;5027236;28;20237;-39
2022/05/29 09:28:24;;;;;;;5.65;3.35;;;11.90;77.70;;;12.28;58.88;97303.25;5026262;28;20072;-39
2022/05/29 09:31:01;;;;;;;9.98;6.20;;;11.90;76.40;;;12.32;58.95;97298.38;5026365;28;20061;-39
2022/05/29 09:33:30;;;;;;;12.23;4.95;;;11.90;76.80;;;12.36;59.05;97305.00;5025301;28;20073;-39
2022/05/29 09:36:42;;;;;;;6.90;3.55;;;12.00;76.80;;;12.31;60.17;97300.22;5017167;28;20046;-39
2022/05/29 09:39:29;;;;;;;8.85;3.38;;;12.00;78.00;;;12.27;60.40;97300.75;5026354;28;20347;-40
2022/05/29 09:42:02;;;;;;;6.97;3.20;;;11.90;81.20;;;12.30;60.17;97303.06;5025857;28;20053;-41
2022/05/29 09:44:30;;;;;;;6.82;3.28;;;11.80;81.20;;;12.30;60.26;97305.75;5027345;28;20079;-39
2022/05/29 09:49:40;;;;;;;7.55;3.60;;;11.80;83.70;;;12.26;60.46;97299.94;5026115;28;20359;-39
2022/05/29 09:50:09;;;;;;;7.60;3.67;;;11.70;86.20;;;12.01;62.13;97307.31;5027041;28;20116;-39
2022/05/29 09:52:43;;;;;;;7.82;3.85;;;11.40;93.00;;;11.98;62.09;97302.31;5027566;28;20351;-39
2022/05/29 09:55:36;;;;;;;10.15;3.90;;;11.40;97.90;;;11.86;63.68;97307.19;5027907;28;20267;-39
2022/05/29 09:58:09;;;;;;;8.23;4.50;;;11.30;97.50;;;11.74;63.63;97305.97;5028693;28;20065;-39
2022/05/29 10:00:42;;;;;;;8.27;3.50;;;11.10;99.90;;;11.70;63.43;97307.31;5025756;28;20460;-39
2022/05/29 10:03:39;;;;;;;9.48;3.30;;;11.10;99.90;;;11.07;65.21;97317.97;5026235;28;20048;-39
2022/05/29 10:06:42;;;;;;;3.93;2.67;;;10.70;99.90;;;11.18;64.80;97319.41;5028622;28;20446;-39
2022/05/29 10:09:11;;;;;;;8.50;2.83;;;10.60;99.90;;;10.96;65.13;97321.00;5025952;28;20045;-39
2022/05/29 10:11:43;;;;;;;4.03;2.40;;;10.40;99.90;;;11.08;64.00;97318.81;5028560;28;20327;-38
2022/05/29 10:14:41;;;;;;;6.63;3.00;;;10.50;99.90;;;11.07;64.50;97319.78;5025258;28;20306;-39
2022/05/29 10:17:28;;;;;;;7.83;2.43;;;10.60;99.90;;;11.12;63.07;97318.28;5026399;28;20416;-39
2022/05/29 10:19:56;;;;;;;5.97;3.77;;;10.60;99.90;;;11.07;63.25;97315.31;5022887;28;20055;-40
2022/05/29 10:22:37;;;;;;;4.33;2.33;;;10.50;99.90;;;10.98;64.36;97316.34;5027351;28;20061;-40
2022/05/29 10:25:19;;;;;;;4.47;2.47;;;10.40;99.90;;;10.90;63.66;97319.03;5026804;28;20060;-39
2022/05/29 10:27:52;;;;;;;5.70;2.50;;;10.40;99.90;;;10.88;63.46;97313.88;5025392;28;20041;-40
2022/05/29 10:30:48;;;;;;;4.50;2.67;;;10.30;99.90;;;10.90;63.71;97322.53;5025940;28;20063;-39
2022/05/29 10:33:27;;;;;;;3.67;2.17;;;10.30;99.90;;;10.82;64.76;97322.56;5025856;28;20060;-40
2022/05/29 10:36:10;;;;;;;4.83;2.00;;;10.30;99.90;;;10.91;63.76;97320.69;5026637;28;20056;-39
2022/05/29 10:38:39;;;;;;;3.70;1.95;;;10.30;99.90;;;10.93;63.49;97316.84;5023463;28;20351;-39
2022/05/29 10:41:10;;;;;;;4.30;1.87;;;10.30;99.90;;;10.88;64.23;97318.38;5025410;28;20057;-40
2022/05/29 10:43:51;;;;;;;4.70;3.40;;;10.30;99.90;;;10.92;63.95;97317.84;5026067;28;20057;-39
2022/05/29 10:46:42;;;;;;;3.43;2.43;;;10.30;99.90;;;10.91;64.11;97313.50;5026819;28;20447;-39
2022/05/29 10:49:28;;;;;;;3.93;2.03;;;10.30;99.90;;;10.69;64.29;97315.09;5025694;28;20049;-40
2022/05/29 10:52:22;;;;;;;3.60;2.30;;;10.10;99.90;;;10.59;64.88;97314.44;5025480;28;20052;-40
2022/05/29 10:55:13;;;;;;;3.95;2.30;;;10.00;99.90;;;10.64;64.44;97317.41;5025052;28;20059;-39
2022/05/29 10:58:05;;;;;;;4.97;2.43;;;10.10;99.90;;;10.73;64.34;97308.41;5027220;28;20049;-39
2022/05/29 11:03:17;;;;;;;3.47;2.40;;;10.20;99.90;;;10.93;64.44;97298.19;5025969;28;20243;-40
2022/05/29 11:04:28;;;;;;;6.87;3.80;;;10.60;99.90;;;11.14;63.70;97296.78;5024818;28;20075;-40
2022/05/29 11:07:38;;;;;;;4.53;3.60;;;10.80;99.90;;;11.32;64.40;97297.38;5025717;28;20071;-40
2022/05/29 11:10:31;;;;;;;2.57;2.30;;;11.10;99.90;;;11.52;63.73;97305.78;5021549;28;20049;-40
2022/05/29 11:13:55;;;;;;;3.43;2.37;;;11.30;99.90;;;11.68;63.94;97298.69;5025205;28;20053;-40
2022/05/29 11:17:10;;;;;;;3.28;1.92;;;11.50;99.90;;;11.83;63.45;97295.06;5026336;28;20057;-40
2022/05/29 11:19:56;;;;;;;6.15;2.15;;;11.70;99.90;;;11.93;62.69;97292.19;5026155;28;20259;-40
2022/05/29 11:22:51;;;;;;;2.60;1.70;;;11.70;99.90;;;12.07;61.58;97282.56;5026516;28;20041;-40
2022/05/29 11:25:58;;;;;;;2.00;1.60;;;11.90;97.30;;;12.14;61.07;97278.19;5026489;28;20051;-40